CYYD

Details ICAO CYYD (YYD)
Name SMITHERS
Region Canada
Timezone America/Vancouver (UTC-7.0)
Plans Departing 12
Arriving 12
Stats Elevation 1,712 ft / 522 m (AMSL)
Location 54.824812° -127.182587°
Runways 1
Magnetic Variation 18.150° E
Sunrise 2018-05-22 12:11:49 UTC / 2018-05-22 05:11:49 Local
Sunset 2018-05-23 04:41:54 UTC / 2018-05-22 21:41:54 Local
Advertisement - Login to hide

Runways

ID Width Length Bearing (true) Bearing (mag) Surface Threshold Offset Overrun Length
15 150 ft / 46 m 4,992 ft / 1,521 m 171.00° 152.85° Asphalt 0 ft / 0 m 0 ft / 0 m
33 150 ft / 46 m 4,992 ft / 1,521 m 351.01° 332.86° Asphalt 0 ft / 0 m 0 ft / 0 m

Map

Weather


0- 5 10 15 20 25 30 35+ Temperature / ° C

Clouds and Precipitation
Forecast for 2018-05-23 06:00 UTC. Updated 2 hours ago

Ground ~20,000 ft ~40,000 ft Winds

METAR

CYYD 230700Z AUTO 33004KT 9SM SCT044 10/08 A2990 RMK SLP132

TAF

TAF CYYD 230038Z 2301/2306 20008KT P6SM BKN060 RMK NXT FCST WILL BE ISSUED AT 231345Z

Frequencies

Tower 122.30 MHz MANDATORY FREQ RDO
Warning: Do not use this data for real-world aviation or navigation. No guarantee of current accuracy is given.